createdAt,value
2023-04-16T00:02:22.054Z,12.20
2023-04-16T00:04:49.871Z,17.40
2023-04-16T00:07:17.605Z,14.40
2023-04-16T00:09:44.995Z,14.80
2023-04-16T00:12:12.946Z,18.40
2023-04-16T00:14:40.517Z,15.80
2023-04-16T00:17:08.004Z,17.20
2023-04-16T00:19:36.517Z,12.60
2023-04-16T00:22:04.104Z,16.60
2023-04-16T00:24:31.693Z,9.80
2023-04-16T00:26:59.290Z,7.00
2023-04-16T00:29:29.001Z,11.40
2023-04-16T00:31:56.603Z,15.60
2023-04-16T00:34:24.584Z,12.60
2023-04-16T00:36:51.980Z,15.80
2023-04-16T00:39:19.631Z,11.40
2023-04-16T00:41:47.346Z,14.20
2023-04-16T00:44:15.060Z,13.00
2023-04-16T00:46:43.427Z,18.00
2023-04-16T00:49:11.398Z,20.80
2023-04-16T00:51:39.122Z,15.00
2023-04-16T00:54:07.310Z,16.00
2023-04-16T00:56:36.933Z,15.60
2023-04-16T00:59:04.943Z,13.80
2023-04-16T01:01:32.432Z,15.20
2023-04-16T01:04:00.347Z,13.60
2023-04-16T01:06:28.270Z,12.40
2023-04-16T01:08:56.004Z,13.80
2023-04-16T01:11:23.497Z,15.40
2023-04-16T01:13:51.115Z,14.80
2023-04-16T01:16:18.764Z,18.00
2023-04-16T01:18:46.604Z,14.60
2023-04-16T01:21:14.175Z,14.00
2023-04-16T01:23:41.743Z,13.40
2023-04-16T01:26:09.585Z,27.20
2023-04-16T01:28:37.102Z,20.80
2023-04-16T01:31:04.760Z,24.40
2023-04-16T01:34:04.918Z,11.80
2023-04-16T01:36:33.190Z,6.80
2023-04-16T01:39:00.797Z,11.80
2023-04-16T01:41:28.301Z,10.00
2023-04-16T01:43:56.014Z,16.40
2023-04-16T01:46:29.710Z,14.00
2023-04-16T01:49:01.902Z,11.60
2023-04-16T01:51:29.503Z,11.80
2023-04-16T01:53:58.531Z,12.80
2023-04-16T01:56:26.811Z,17.00
2023-04-16T01:58:54.324Z,11.00
2023-04-16T02:01:22.112Z,14.20
2023-04-16T02:03:50.290Z,5.80
2023-04-16T02:06:17.995Z,12.60
2023-04-16T02:08:47.464Z,11.40
2023-04-16T02:11:16.224Z,8.40
2023-04-16T02:13:44.192Z,19.80
2023-04-16T02:16:12.046Z,20.00
2023-04-16T02:18:45.296Z,15.60
2023-04-16T02:21:15.120Z,15.20
2023-04-16T02:23:47.772Z,15.80
2023-04-16T02:26:15.302Z,12.40
2023-04-16T02:28:43.740Z,11.40
2023-04-16T02:31:12.840Z,12.60
2023-04-16T02:33:44.667Z,9.40
2023-04-16T02:36:13.141Z,7.00
2023-04-16T02:38:40.619Z,11.40
2023-04-16T02:41:08.438Z,7.20
2023-04-16T02:43:35.937Z,10.40
2023-04-16T02:46:04.560Z,8.80
2023-04-16T02:48:32.160Z,18.40
2023-04-16T02:50:59.906Z,12.60
2023-04-16T02:53:27.488Z,10.00
2023-04-16T02:55:55.980Z,13.00
2023-04-16T02:58:25.615Z,10.00
2023-04-16T03:00:54.188Z,16.00
2023-04-16T03:03:22.193Z,14.40
2023-04-16T03:05:50.000Z,10.80
2023-04-16T03:08:17.372Z,14.80
2023-04-16T03:10:44.985Z,9.80
2023-04-16T03:13:12.625Z,11.40
2023-04-16T03:15:40.453Z,10.80
2023-04-16T03:18:08.053Z,15.80
2023-04-16T03:20:35.582Z,13.20
2023-04-16T03:23:03.480Z,18.20
2023-04-16T03:25:31.002Z,11.00
2023-04-16T03:27:58.811Z,11.80
2023-04-16T03:30:26.255Z,12.00
2023-04-16T03:32:53.897Z,14.20
2023-04-16T03:35:21.835Z,14.00
2023-04-16T03:37:50.504Z,15.00
2023-04-16T03:40:18.496Z,16.80
2023-04-16T03:42:46.420Z,11.40
2023-04-16T03:45:13.853Z,10.40
2023-04-16T03:47:42.077Z,15.60
2023-04-16T03:50:11.780Z,12.40
2023-04-16T03:52:40.082Z,8.80
2023-04-16T03:55:08.204Z,10.80
2023-04-16T03:57:35.816Z,10.80
2023-04-16T04:00:09.592Z,13.80
2023-04-16T04:02:55.658Z,10.20
2023-04-16T04:05:24.322Z,16.20
2023-04-16T04:07:52.616Z,1.40
2023-04-16T04:10:20.041Z,11.60
2023-04-16T04:12:47.609Z,9.40
2023-04-16T04:15:14.995Z,9.20
2023-04-16T04:17:42.961Z,17.40
2023-04-16T04:20:10.891Z,13.60
2023-04-16T04:22:38.314Z,11.20
2023-04-16T04:25:06.508Z,12.40
2023-04-16T04:27:33.888Z,10.00
2023-04-16T04:30:01.122Z,14.00
2023-04-16T04:32:31.848Z,12.80
2023-04-16T04:35:02.882Z,10.20
2023-04-16T04:37:30.223Z,11.40
2023-04-16T04:39:57.981Z,11.80
2023-04-16T04:42:25.203Z,11.40
2023-04-16T04:44:54.981Z,10.40
2023-04-16T04:47:23.366Z,11.60
2023-04-16T04:49:53.575Z,9.40
2023-04-16T04:52:21.343Z,11.60
2023-04-16T04:54:50.029Z,9.40
2023-04-16T04:57:17.544Z,9.00
2023-04-16T04:59:45.315Z,9.60
2023-04-16T05:02:14.731Z,10.20
2023-04-16T05:04:42.561Z,10.00
2023-04-16T05:07:10.203Z,5.40
2023-04-16T05:09:37.641Z,8.80
2023-04-16T05:12:05.204Z,10.60
2023-04-16T05:14:33.003Z,8.60
2023-04-16T05:17:00.549Z,5.00
2023-04-16T05:19:28.633Z,11.80
2023-04-16T05:21:56.546Z,12.80
2023-04-16T05:24:24.122Z,8.40
2023-04-16T05:26:51.588Z,10.80
2023-04-16T05:29:19.046Z,8.60
2023-04-16T05:31:46.552Z,10.60
2023-04-16T05:34:15.948Z,8.40
2023-04-16T05:36:43.707Z,7.20
2023-04-16T05:39:11.617Z,8.80
2023-04-16T05:41:39.284Z,12.20
2023-04-16T05:44:06.776Z,9.80
2023-04-16T05:46:34.337Z,11.60
2023-04-16T05:49:02.810Z,11.80
2023-04-16T05:51:30.284Z,16.00
2023-04-16T05:53:57.570Z,12.40
2023-04-16T05:56:26.000Z,11.00
2023-04-16T05:58:53.384Z,13.20
2023-04-16T06:01:22.504Z,12.20
2023-04-16T06:03:49.918Z,11.00
2023-04-16T06:06:17.251Z,6.60
2023-04-16T06:08:44.805Z,9.20
2023-04-16T06:11:12.482Z,12.60
2023-04-16T06:13:40.052Z,11.20
2023-04-16T06:16:07.558Z,9.80
2023-04-16T06:18:34.980Z,12.00
2023-04-16T06:21:02.485Z,8.20
2023-04-16T06:23:30.114Z,14.20
2023-04-16T06:25:58.333Z,9.20
2023-04-16T06:28:25.782Z,12.20
2023-04-16T06:30:53.203Z,9.60
2023-04-16T06:33:20.818Z,5.20
2023-04-16T06:35:48.062Z,13.20
2023-04-16T06:38:15.732Z,15.20
2023-04-16T06:40:43.083Z,12.20
2023-04-16T06:43:10.420Z,6.80
2023-04-16T06:45:37.799Z,13.40
2023-04-16T06:48:05.674Z,16.40
2023-04-16T06:50:33.386Z,19.00
2023-04-16T06:53:00.838Z,12.60
2023-04-16T06:55:28.069Z,4.00
2023-04-16T06:57:55.325Z,10.40
2023-04-16T07:00:22.582Z,11.00
2023-04-16T07:02:50.162Z,14.20
2023-04-16T07:05:17.513Z,7.80
2023-04-16T07:07:45.010Z,17.80
2023-04-16T07:10:12.795Z,18.00
2023-04-16T07:12:40.331Z,20.80
2023-04-16T07:15:08.841Z,13.40
2023-04-16T07:17:36.464Z,16.00
2023-04-16T07:20:04.399Z,16.40
2023-04-16T07:22:31.973Z,15.60
2023-04-16T07:24:59.531Z,12.80
2023-04-16T07:27:27.453Z,20.20
2023-04-16T07:29:56.000Z,13.40
2023-04-16T07:32:24.313Z,19.60
2023-04-16T07:34:52.162Z,17.40
2023-04-16T07:37:19.890Z,11.60
2023-04-16T07:39:47.758Z,13.40
2023-04-16T07:42:15.279Z,17.40
2023-04-16T07:44:43.070Z,12.80
2023-04-16T07:47:10.489Z,14.00
2023-04-16T07:49:38.124Z,15.80
2023-04-16T07:52:06.258Z,7.00
2023-04-16T07:54:33.919Z,25.40
2023-04-16T07:57:01.647Z,15.00
2023-04-16T07:59:29.438Z,12.00
2023-04-16T08:01:57.206Z,14.60
2023-04-16T08:04:26.026Z,13.80
2023-04-16T08:06:54.703Z,11.40
2023-04-16T08:09:25.405Z,15.60
2023-04-16T08:11:53.838Z,17.20
2023-04-16T08:14:21.929Z,14.00
2023-04-16T08:16:50.883Z,19.00
2023-04-16T08:19:19.293Z,17.80
2023-04-16T08:21:47.730Z,22.20
2023-04-16T08:24:15.417Z,10.20
2023-04-16T08:26:43.197Z,16.40
2023-04-16T08:29:11.223Z,12.00
2023-04-16T08:31:39.235Z,13.20
2023-04-16T08:34:06.859Z,19.80
2023-04-16T08:36:34.599Z,12.80
2023-04-16T08:39:02.283Z,13.00
2023-04-16T08:41:32.648Z,46.00
2023-04-16T08:44:05.364Z,30.40
2023-04-16T08:46:38.974Z,20.60
2023-04-16T08:49:08.102Z,13.20
2023-04-16T08:51:36.450Z,11.80
2023-04-16T08:54:07.736Z,14.80
2023-04-16T08:56:37.920Z,14.80
2023-04-16T08:59:06.056Z,16.80
2023-04-16T09:01:34.310Z,21.00
2023-04-16T09:04:03.444Z,29.40
2023-04-16T09:06:31.633Z,15.40
2023-04-16T09:09:00.924Z,20.20
2023-04-16T09:11:28.686Z,18.00
2023-04-16T09:13:56.493Z,24.60
2023-04-16T09:16:25.616Z,46.40
2023-04-16T09:18:53.408Z,14.60
2023-04-16T09:21:23.904Z,39.60
2023-04-16T09:23:53.958Z,11.40
2023-04-16T09:26:22.363Z,21.20
2023-04-16T09:28:51.604Z,14.80
2023-04-16T09:31:20.210Z,19.20
2023-04-16T09:34:04.709Z,17.00
2023-04-16T09:36:33.650Z,13.40
2023-04-16T09:39:02.216Z,20.80
2023-04-16T09:41:31.716Z,22.60
2023-04-16T09:44:02.299Z,20.60
2023-04-16T09:46:37.840Z,14.20
2023-04-16T09:49:15.797Z,9.00
2023-04-16T09:51:44.729Z,19.80
2023-04-16T09:54:12.284Z,20.00
2023-04-16T09:56:47.258Z,19.20
2023-04-16T09:59:19.037Z,22.40
2023-04-16T10:01:50.744Z,19.80
2023-04-16T10:04:18.196Z,18.80
2023-04-16T10:06:48.780Z,17.00
2023-04-16T10:09:16.394Z,21.80
2023-04-16T10:11:44.250Z,17.20
2023-04-16T10:14:11.668Z,17.40
2023-04-16T10:16:41.251Z,13.60
2023-04-16T10:19:09.308Z,14.40
2023-04-16T10:21:37.093Z,13.00
2023-04-16T10:24:05.429Z,18.00
2023-04-16T10:26:33.806Z,12.20
2023-04-16T10:29:02.974Z,16.40
2023-04-16T10:31:31.806Z,11.00
2023-04-16T10:33:59.881Z,16.20
2023-04-16T10:36:27.606Z,21.60
2023-04-16T10:39:00.285Z,20.40
2023-04-16T10:41:28.293Z,18.00
2023-04-16T10:44:10.129Z,18.40
2023-04-16T10:46:39.451Z,18.40
2023-04-16T10:49:16.070Z,16.60
2023-04-16T10:51:52.496Z,17.80
2023-04-16T10:54:30.679Z,16.20
2023-04-16T10:57:02.949Z,15.60
2023-04-16T10:59:35.052Z,18.40
2023-04-16T11:02:13.288Z,14.60
2023-04-16T11:04:44.409Z,15.80
2023-04-16T11:07:12.171Z,21.00
2023-04-16T11:10:02.637Z,12.40
2023-04-16T11:12:30.242Z,18.60
2023-04-16T11:15:01.647Z,19.80
2023-04-16T11:17:52.129Z,17.60
2023-04-16T11:20:25.215Z,20.80
2023-04-16T11:22:55.069Z,23.00
2023-04-16T11:25:34.965Z,20.00
2023-04-16T11:28:03.003Z,19.20
2023-04-16T11:30:35.151Z,21.80
2023-04-16T11:33:11.604Z,21.60
2023-04-16T11:35:40.249Z,16.40
2023-04-16T11:38:07.898Z,21.00
2023-04-16T11:40:36.621Z,14.40
2023-04-16T11:43:15.780Z,16.20
2023-04-16T11:46:01.605Z,22.40
2023-04-16T11:48:55.879Z,17.00
2023-04-16T11:51:24.008Z,16.60
2023-04-16T11:53:53.438Z,12.40
2023-04-16T11:56:30.972Z,17.20
2023-04-16T11:59:14.859Z,9.60
2023-04-16T12:01:46.324Z,14.00
2023-04-16T12:04:16.627Z,17.80
2023-04-16T12:07:06.434Z,19.60
2023-04-16T12:09:37.143Z,16.00
2023-04-16T12:12:07.624Z,26.80
2023-04-16T12:14:35.146Z,18.20
2023-04-16T12:17:20.168Z,14.00
2023-04-16T12:19:58.057Z,16.20
2023-04-16T12:22:36.831Z,17.40
2023-04-16T12:25:18.363Z,16.00
2023-04-16T12:27:50.724Z,18.40
2023-04-16T12:30:23.512Z,14.60
2023-04-16T12:32:53.611Z,15.80
2023-04-16T12:35:34.883Z,17.80
2023-04-16T12:38:03.834Z,24.60
2023-04-16T12:40:31.292Z,13.80
2023-04-16T12:42:58.783Z,18.80
2023-04-16T12:45:26.207Z,24.80
2023-04-16T12:47:53.975Z,13.40
2023-04-16T12:50:21.607Z,20.00
2023-04-16T12:52:49.373Z,21.00
2023-04-16T12:55:16.827Z,21.20
2023-04-16T12:57:45.686Z,24.80
2023-04-16T13:00:14.989Z,19.80
2023-04-16T13:02:42.795Z,17.20
2023-04-16T13:05:10.609Z,18.80
2023-04-16T13:07:38.238Z,22.20
2023-04-16T13:10:06.695Z,25.20
2023-04-16T13:12:34.160Z,26.20
2023-04-16T13:15:01.801Z,24.60
2023-04-16T13:17:29.231Z,34.00
2023-04-16T13:19:56.576Z,27.00
2023-04-16T13:22:24.373Z,26.00
2023-04-16T13:24:52.035Z,24.60
2023-04-16T13:27:19.731Z,21.20
2023-04-16T13:29:47.432Z,22.40
2023-04-16T13:32:15.345Z,30.80
2023-04-16T13:34:43.632Z,39.60
2023-04-16T13:37:11.004Z,30.80
2023-04-16T13:39:38.361Z,24.60
2023-04-16T13:42:05.950Z,23.20
2023-04-16T13:44:33.185Z,24.80
2023-04-16T13:47:00.855Z,26.40
2023-04-16T13:49:28.440Z,33.20
2023-04-16T13:51:55.843Z,30.20
2023-04-16T13:54:23.178Z,22.40
2023-04-16T13:56:51.460Z,31.20
2023-04-16T13:59:19.240Z,22.80
2023-04-16T14:01:46.511Z,26.20
2023-04-16T14:04:13.816Z,47.40
2023-04-16T14:06:41.302Z,41.80
2023-04-16T14:09:11.183Z,26.20
2023-04-16T14:11:39.024Z,32.80
2023-04-16T14:14:06.965Z,15.60
2023-04-16T14:16:34.937Z,25.60
2023-04-16T14:19:02.508Z,22.60
2023-04-16T14:21:31.588Z,25.00
2023-04-16T14:23:59.116Z,21.00
2023-04-16T14:26:26.563Z,25.80
2023-04-16T14:28:53.973Z,28.00
2023-04-16T14:31:21.701Z,21.40
2023-04-16T14:33:49.375Z,21.80
2023-04-16T14:36:17.351Z,25.40
2023-04-16T14:38:45.091Z,31.80
2023-04-16T14:41:13.694Z,22.00
2023-04-16T14:43:41.664Z,25.20
2023-04-16T14:46:09.410Z,24.80
2023-04-16T14:48:37.246Z,19.00
2023-04-16T14:51:04.855Z,26.20
2023-04-16T14:53:32.401Z,31.60
2023-04-16T14:55:59.908Z,24.60
2023-04-16T14:58:27.443Z,23.00
2023-04-16T15:00:54.975Z,30.80
2023-04-16T15:03:22.762Z,28.00
2023-04-16T15:05:55.550Z,27.40
2023-04-16T15:08:24.094Z,29.80
2023-04-16T15:10:52.052Z,27.60
2023-04-16T15:13:19.655Z,21.80
2023-04-16T15:15:46.989Z,26.40
2023-04-16T15:18:14.431Z,30.40
2023-04-16T15:20:41.944Z,32.00
2023-04-16T15:23:09.333Z,22.40
2023-04-16T15:25:36.717Z,24.80
2023-04-16T15:28:04.243Z,27.00
2023-04-16T15:30:31.695Z,26.80
2023-04-16T15:32:59.170Z,26.80
2023-04-16T15:35:26.606Z,25.40
2023-04-16T15:37:55.568Z,20.60
2023-04-16T15:40:23.005Z,19.20
2023-04-16T15:42:50.443Z,21.00
2023-04-16T15:45:17.949Z,19.60
2023-04-16T15:47:48.313Z,17.80
2023-04-16T15:50:15.849Z,18.80
2023-04-16T15:52:43.543Z,25.20
2023-04-16T15:55:10.951Z,20.40
2023-04-16T15:57:38.604Z,22.20
2023-04-16T16:00:27.028Z,11.20
2023-04-16T16:02:54.427Z,22.00
2023-04-16T16:05:21.792Z,21.60
2023-04-16T16:07:49.322Z,25.40
2023-04-16T16:10:17.171Z,26.40
2023-04-16T16:12:44.823Z,22.20
2023-04-16T16:15:12.235Z,25.40
2023-04-16T16:17:41.053Z,28.20
2023-04-16T16:20:11.088Z,27.40
2023-04-16T16:22:39.295Z,26.40
2023-04-16T16:25:07.846Z,21.20
2023-04-16T16:27:36.550Z,24.20
2023-04-16T16:30:06.727Z,23.00
2023-04-16T16:32:34.410Z,20.60
2023-04-16T16:35:02.004Z,25.40
2023-04-16T16:37:29.964Z,30.80
2023-04-16T16:39:57.306Z,26.60
2023-04-16T16:42:24.815Z,26.20
2023-04-16T16:44:53.030Z,24.60
2023-04-16T16:47:21.923Z,40.00
2023-04-16T16:49:49.314Z,24.40
2023-04-16T16:52:17.436Z,24.60
2023-04-16T16:54:44.645Z,38.60
2023-04-16T16:57:13.008Z,24.60
2023-04-16T16:59:40.454Z,25.40
2023-04-16T17:02:07.815Z,25.60
2023-04-16T17:04:35.179Z,28.40
2023-04-16T17:07:02.548Z,29.00
2023-04-16T17:09:29.964Z,28.20
2023-04-16T17:11:57.529Z,24.80
2023-04-16T17:14:24.928Z,25.00
2023-04-16T17:16:52.331Z,36.00
2023-04-16T17:19:19.728Z,27.80
2023-04-16T17:21:47.050Z,20.40
2023-04-16T17:24:14.498Z,21.60
2023-04-16T17:26:41.905Z,24.40
2023-04-16T17:29:09.209Z,26.20
2023-04-16T17:31:36.755Z,27.40
2023-04-16T17:34:06.184Z,21.60
2023-04-16T17:36:33.546Z,27.60
2023-04-16T17:39:00.727Z,22.20
2023-04-16T17:41:27.964Z,28.40
2023-04-16T17:43:55.526Z,26.20
2023-04-16T17:46:23.159Z,26.40
2023-04-16T17:48:50.460Z,28.00
2023-04-16T17:51:17.900Z,23.00
2023-04-16T17:53:45.274Z,27.00
2023-04-16T17:56:14.155Z,22.60
2023-04-16T17:58:41.366Z,30.40
2023-04-16T18:01:08.896Z,29.20
2023-04-16T18:03:37.750Z,28.80
2023-04-16T18:06:05.501Z,18.80
2023-04-16T18:08:33.993Z,29.60
2023-04-16T18:11:01.402Z,25.40
2023-04-16T18:13:28.715Z,23.80
2023-04-16T18:15:56.340Z,28.40
2023-04-16T18:18:23.736Z,20.40
2023-04-16T18:20:52.176Z,22.00
2023-04-16T18:23:19.442Z,15.20
2023-04-16T18:25:48.793Z,24.20
2023-04-16T18:28:17.921Z,19.80
2023-04-16T18:30:45.320Z,22.80
2023-04-16T18:33:42.763Z,27.60
2023-04-16T18:36:03.159Z,24.80
2023-04-16T18:38:33.255Z,27.00
2023-04-16T18:41:02.260Z,23.80
2023-04-16T18:43:29.692Z,19.40
2023-04-16T18:45:57.027Z,24.60
2023-04-16T18:48:24.360Z,15.40
2023-04-16T18:50:51.661Z,24.40
2023-04-16T18:53:19.110Z,27.60
2023-04-16T18:55:46.515Z,27.60
2023-04-16T18:58:13.836Z,22.20
2023-04-16T19:00:41.130Z,23.80
2023-04-16T19:03:09.767Z,15.40
2023-04-16T19:05:37.105Z,22.20
2023-04-16T19:08:04.804Z,19.40
2023-04-16T19:10:32.046Z,22.00
2023-04-16T19:12:59.736Z,24.60
2023-04-16T19:15:29.182Z,19.20
2023-04-16T19:17:58.136Z,34.00
2023-04-16T19:20:25.875Z,22.80
2023-04-16T19:22:53.462Z,23.00
2023-04-16T19:25:20.766Z,22.40
2023-04-16T19:27:48.281Z,23.00
2023-04-16T19:30:15.632Z,23.60
2023-04-16T19:32:43.030Z,19.80
2023-04-16T19:35:11.017Z,23.60
2023-04-16T19:37:38.370Z,22.20
2023-04-16T19:40:06.711Z,21.80
2023-04-16T19:42:34.091Z,18.20
2023-04-16T19:45:01.316Z,22.20
2023-04-16T19:47:28.669Z,22.80
2023-04-16T19:49:56.093Z,21.20
2023-04-16T19:52:23.465Z,22.20
2023-04-16T19:54:50.813Z,19.80
2023-04-16T19:57:18.188Z,19.20
2023-04-16T19:59:45.429Z,17.60
2023-04-16T20:02:12.929Z,25.40
2023-04-16T20:04:40.219Z,26.00
2023-04-16T20:07:07.740Z,23.00
2023-04-16T20:09:35.165Z,23.40
2023-04-16T20:12:02.898Z,19.20
2023-04-16T20:14:30.252Z,18.20
2023-04-16T20:16:57.588Z,24.60
2023-04-16T20:19:30.070Z,18.60
2023-04-16T20:21:57.378Z,17.40
2023-04-16T20:24:24.869Z,18.80
2023-04-16T20:26:52.183Z,22.40
2023-04-16T20:29:19.508Z,21.60
2023-04-16T20:31:46.947Z,13.60
2023-04-16T20:34:14.439Z,21.60
2023-04-16T20:36:41.733Z,18.20
2023-04-16T20:39:09.984Z,18.00
2023-04-16T20:41:40.290Z,27.40
2023-04-16T20:44:10.413Z,27.00
2023-04-16T20:46:42.230Z,27.40
2023-04-16T20:49:09.898Z,19.40
2023-04-16T20:51:38.544Z,18.00
2023-04-16T20:54:06.008Z,25.40
2023-04-16T20:56:33.225Z,20.20
2023-04-16T20:59:00.683Z,19.40
2023-04-16T21:01:28.173Z,25.80
2023-04-16T21:03:55.769Z,19.80
2023-04-16T21:06:23.136Z,19.00
2023-04-16T21:08:50.610Z,21.80
2023-04-16T21:11:17.938Z,20.60
2023-04-16T21:13:45.477Z,17.60
2023-04-16T21:16:12.849Z,22.60
2023-04-16T21:18:40.245Z,14.40
2023-04-16T21:21:08.104Z,18.00
2023-04-16T21:23:35.649Z,15.60
2023-04-16T21:26:03.099Z,18.20
2023-04-16T21:28:30.859Z,18.60
2023-04-16T21:30:58.357Z,18.60
2023-04-16T21:33:27.447Z,24.00
2023-04-16T21:35:55.411Z,19.80
2023-04-16T21:38:23.334Z,18.80
2023-04-16T21:40:54.152Z,13.00
2023-04-16T21:43:22.371Z,22.80
2023-04-16T21:45:52.581Z,19.80
2023-04-16T21:48:21.081Z,19.00
2023-04-16T21:50:54.547Z,24.80
2023-04-16T21:53:22.385Z,16.80
2023-04-16T21:55:49.925Z,15.80
2023-04-16T21:58:17.657Z,15.40
2023-04-16T22:00:45.183Z,15.20
2023-04-16T22:03:12.962Z,21.60
2023-04-16T22:05:40.634Z,21.00
2023-04-16T22:08:23.614Z,16.80
2023-04-16T22:10:52.629Z,18.40
2023-04-16T22:13:20.083Z,18.00
2023-04-16T22:15:47.627Z,20.40
2023-04-16T22:18:15.149Z,22.00
2023-04-16T22:20:42.826Z,27.00
2023-04-16T22:23:10.504Z,14.20
2023-04-16T22:25:37.868Z,21.00
2023-04-16T22:28:06.758Z,23.40
2023-04-16T22:30:34.200Z,19.40
2023-04-16T22:33:03.959Z,19.20
2023-04-16T22:35:31.626Z,19.40
2023-04-16T22:37:59.104Z,20.80
2023-04-16T22:40:26.773Z,20.00
2023-04-16T22:42:54.354Z,14.40
2023-04-16T22:45:22.918Z,16.80
2023-04-16T22:47:50.278Z,10.80
2023-04-16T22:50:18.764Z,19.60
2023-04-16T22:52:46.069Z,20.20
2023-04-16T22:55:13.676Z,14.60
2023-04-16T22:57:41.244Z,14.00
2023-04-16T23:00:15.983Z,23.00
2023-04-16T23:02:44.659Z,24.40
2023-04-16T23:05:12.316Z,23.00
2023-04-16T23:07:39.859Z,20.60
2023-04-16T23:10:08.886Z,19.80
2023-04-16T23:12:39.523Z,19.20
2023-04-16T23:15:07.715Z,18.60
2023-04-16T23:17:35.448Z,21.60
2023-04-16T23:20:05.729Z,21.20
2023-04-16T23:22:33.321Z,22.40
2023-04-16T23:25:00.909Z,21.00
2023-04-16T23:27:28.348Z,18.60
2023-04-16T23:29:56.065Z,16.60
2023-04-16T23:32:23.382Z,18.80
2023-04-16T23:34:51.273Z,19.20
2023-04-16T23:37:18.773Z,21.80
2023-04-16T23:39:46.300Z,17.40
2023-04-16T23:42:13.829Z,16.00
2023-04-16T23:44:41.920Z,23.00
2023-04-16T23:47:09.467Z,20.80
2023-04-16T23:49:37.524Z,23.40
2023-04-16T23:52:05.510Z,15.60
2023-04-16T23:54:32.985Z,19.80
2023-04-16T23:57:00.585Z,21.40
2023-04-16T23:59:27.913Z,24.40
